Time;durP1;ratioP1;P1;durP2;ratioP2;P2;SDS_P1;SDS_P2;PMS_P1;PMS_P2;Temp;Humidity;BMP_temperature;BMP_pressure;BME280_temperature;BME280_humidity;BME280_pressure;Samples;Min_cycle;Max_cycle;Signal;HPM_P1;HPM_P2
2021/04/07 00:01:40;;;;;;;2.60;1.43;;;2.90;98.10;;;;;;5051399;28;20443;-69
2021/04/07 00:04:05;;;;;;;5.10;2.10;;;2.80;97.40;;;;;;5050917;28;20190;-68
2021/04/07 00:06:35;;;;;;;3.13;2.00;;;2.80;98.60;;;;;;5051106;28;20186;-69
2021/04/07 00:09:04;;;;;;;3.10;1.93;;;2.90;98.30;;;;;;5050766;28;20198;-70
2021/04/07 00:11:30;;;;;;;3.63;1.80;;;2.90;97.40;;;;;;5033150;28;20421;-70
2021/04/07 00:13:57;;;;;;;3.70;1.73;;;3.00;97.50;;;;;;5050669;28;20814;-68
2021/04/07 00:16:23;;;;;;;2.50;2.00;;;3.00;97.80;;;;;;5050658;28;20266;-68
2021/04/07 00:18:49;;;;;;;4.93;2.00;;;3.00;97.80;;;;;;5051013;28;20420;-67
2021/04/07 00:21:15;;;;;;;2.77;1.80;;;2.90;97.40;;;;;;5050506;28;20958;-67
2021/04/07 00:23:40;;;;;;;3.60;1.70;;;2.80;98.10;;;;;;5050612;28;20179;-69
2021/04/07 00:26:06;;;;;;;2.70;1.83;;;2.80;98.30;;;;;;5032601;28;20240;-68
2021/04/07 00:28:32;;;;;;;4.40;1.70;;;2.70;98.10;;;;;;5050645;28;20218;-68
2021/04/07 00:30:58;;;;;;;2.23;1.73;;;2.70;98.70;;;;;;5050750;28;20190;-70
2021/04/07 00:33:28;;;;;;;2.60;1.87;;;2.70;98.60;;;;;;5032578;28;20977;-68
2021/04/07 00:35:54;;;;;;;7.50;2.03;;;2.60;99.10;;;;;;5031719;28;20428;-69
2021/04/07 00:38:19;;;;;;;7.20;1.90;;;2.50;98.90;;;;;;5050260;28;20508;-70
2021/04/07 00:40:46;;;;;;;5.57;2.00;;;2.50;99.00;;;;;;5050687;28;20171;-71
2021/04/07 00:43:11;;;;;;;6.97;2.10;;;2.50;99.90;;;;;;5050815;28;20647;-68
2021/04/07 00:45:37;;;;;;;3.27;1.70;;;2.40;99.90;;;;;;5050283;28;20409;-71
2021/04/07 00:48:04;;;;;;;3.07;1.73;;;2.30;99.50;;;;;;5050696;28;20187;-70
2021/04/07 00:50:31;;;;;;;3.70;2.00;;;2.20;99.90;;;;;;5050402;28;20833;-68
2021/04/07 00:52:57;;;;;;;2.63;2.00;;;2.10;99.90;;;;;;5050292;28;20449;-69
2021/04/07 00:55:25;;;;;;;5.20;2.00;;;2.10;99.90;;;;;;5050214;28;20449;-71
2021/04/07 00:57:53;;;;;;;4.33;2.00;;;2.00;99.90;;;;;;5050593;28;20425;-68
2021/04/07 01:00:20;;;;;;;4.37;2.30;;;2.10;99.90;;;;;;5050666;28;20441;-69
2021/04/07 01:02:47;;;;;;;2.30;1.80;;;2.10;99.90;;;;;;5050315;28;20425;-70
2021/04/07 01:05:13;;;;;;;2.93;1.80;;;2.10;99.90;;;;;;5050564;28;20468;-71
2021/04/07 01:07:39;;;;;;;2.23;1.87;;;2.00;99.90;;;;;;5050360;28;20923;-68
2021/04/07 01:10:07;;;;;;;4.63;2.27;;;2.00;99.90;;;;;;5050402;28;20175;-69
2021/04/07 01:12:33;;;;;;;4.20;2.03;;;2.10;99.90;;;;;;5050275;28;20429;-70
2021/04/07 01:14:59;;;;;;;3.53;2.00;;;2.20;99.90;;;;;;5049384;28;20405;-70
2021/04/07 01:17:25;;;;;;;6.47;2.63;;;2.30;99.90;;;;;;5050391;28;20568;-68
2021/04/07 01:19:51;;;;;;;6.70;2.53;;;2.40;99.90;;;;;;5049848;28;20462;-67
2021/04/07 01:22:21;;;;;;;3.87;2.00;;;2.40;99.90;;;;;;5050294;28;20171;-69
2021/04/07 01:24:47;;;;;;;6.03;2.10;;;2.40;99.90;;;;;;5050236;28;20178;-71
2021/04/07 01:27:14;;;;;;;5.53;1.97;;;2.50;99.90;;;;;;5050356;28;21098;-68
2021/04/07 01:29:39;;;;;;;5.17;2.10;;;2.50;99.90;;;;;;5050316;28;20414;-67
2021/04/07 01:32:05;;;;;;;6.37;1.90;;;2.50;99.90;;;;;;5050042;28;20479;-70
2021/04/07 01:34:32;;;;;;;2.50;2.00;;;2.60;99.10;;;;;;5049998;28;20649;-71
2021/04/07 01:37:00;;;;;;;3.07;2.10;;;2.60;99.90;;;;;;5052123;28;20222;-70
2021/04/07 01:39:29;;;;;;;3.10;1.63;;;2.50;99.30;;;;;;5053918;28;20441;-69
2021/04/07 01:41:55;;;;;;;3.70;2.20;;;2.40;99.30;;;;;;5053661;28;20788;-67
2021/04/07 01:44:22;;;;;;;3.27;2.10;;;2.30;99.70;;;;;;5053750;28;20463;-69
2021/04/07 01:46:49;;;;;;;2.27;1.80;;;2.30;99.90;;;;;;5053772;28;20179;-67
2021/04/07 01:49:15;;;;;;;3.83;2.00;;;2.30;99.90;;;;;;5053738;28;20409;-69
2021/04/07 01:51:42;;;;;;;5.17;1.97;;;2.30;99.90;;;;;;5053772;28;20912;-72
2021/04/07 01:54:10;;;;;;;2.73;2.10;;;2.20;99.90;;;;;;5046380;28;20458;-67
2021/04/07 01:56:50;;;;;;;2.17;1.93;;;2.20;99.90;;;;;;5033581;28;20495;-70
2021/04/07 01:59:21;;;;;;;3.37;1.70;;;2.30;99.90;;;;;;5033219;28;20454;-69
2021/04/07 02:01:47;;;;;;;3.40;1.87;;;2.40;99.90;;;;;;5033237;28;20987;-68
2021/04/07 02:04:14;;;;;;;5.03;1.70;;;2.50;99.90;;;;;;5033757;28;20447;-68
2021/04/07 02:06:41;;;;;;;3.83;2.30;;;2.50;99.30;;;;;;5033233;28;20414;-68
2021/04/07 02:09:06;;;;;;;1.70;1.57;;;2.50;99.90;;;;;;5033414;28;20438;-69
2021/04/07 02:11:33;;;;;;;4.07;1.97;;;2.50;99.50;;;;;;5053100;28;20891;-69
2021/04/07 02:13:58;;;;;;;3.37;2.10;;;2.50;98.10;;;;;;5052786;28;20245;-71
2021/04/07 02:16:24;;;;;;;2.63;1.80;;;2.60;98.80;;;;;;5053347;28;20418;-69
2021/04/07 02:18:49;;;;;;;2.40;1.77;;;2.60;97.50;;;;;;5052853;28;20618;-69
2021/04/07 02:21:15;;;;;;;5.60;2.40;;;2.60;98.30;;;;;;5053385;28;20210;-70
2021/04/07 02:23:41;;;;;;;3.83;1.93;;;2.60;98.20;;;;;;5052901;28;20179;-69
2021/04/07 02:26:08;;;;;;;2.70;1.70;;;2.60;97.10;;;;;;5052782;28;20179;-68
2021/04/07 02:28:34;;;;;;;2.87;1.83;;;2.60;97.00;;;;;;5053030;28;20175;-68
2021/04/07 02:31:00;;;;;;;4.17;1.50;;;2.50;97.00;;;;;;5052510;28;20463;-68
2021/04/07 02:33:26;;;;;;;2.07;1.40;;;2.50;96.60;;;;;;5052895;28;20947;-67
2021/04/07 02:35:52;;;;;;;3.80;2.07;;;2.40;97.00;;;;;;5052664;28;20182;-69
2021/04/07 02:38:18;;;;;;;3.33;1.60;;;2.40;97.30;;;;;;5052982;28;20689;-67
2021/04/07 02:40:43;;;;;;;5.47;1.80;;;2.50;96.50;;;;;;5052895;28;20444;-67
2021/04/07 02:43:09;;;;;;;4.43;1.47;;;2.50;96.10;;;;;;5052184;28;20572;-67
2021/04/07 02:45:35;;;;;;;3.73;1.53;;;2.50;96.70;;;;;;5052746;28;20175;-69
2021/04/07 02:48:00;;;;;;;3.50;1.57;;;2.60;96.30;;;;;;5052355;28;20182;-69
2021/04/07 02:50:26;;;;;;;2.13;1.40;;;2.70;95.80;;;;;;5052859;28;20183;-67
2021/04/07 02:52:52;;;;;;;1.90;1.70;;;2.60;95.80;;;;;;5052589;28;20199;-68
2021/04/07 02:55:18;;;;;;;1.63;1.53;;;2.60;96.20;;;;;;5036299;28;20207;-67
2021/04/07 02:57:44;;;;;;;2.70;1.20;;;2.70;95.50;;;;;;5032543;28;20411;-67
2021/04/07 03:00:10;;;;;;;4.27;1.40;;;2.80;94.90;;;;;;5032032;28;20183;-69
2021/04/07 03:02:36;;;;;;;1.23;1.03;;;2.90;94.90;;;;;;5032174;28;20415;-68
2021/04/07 03:05:02;;;;;;;3.40;1.90;;;2.80;94.70;;;;;;5032193;28;20445;-66
2021/04/07 03:07:28;;;;;;;2.17;1.30;;;2.80;95.40;;;;;;5032209;28;20529;-69
2021/04/07 03:09:53;;;;;;;1.73;1.53;;;2.70;94.10;;;;;;5032352;28;20411;-69
2021/04/07 03:12:19;;;;;;;2.13;1.37;;;2.80;94.90;;;;;;5032244;28;20200;-69
2021/04/07 03:14:45;;;;;;;4.43;1.37;;;2.80;94.30;;;;;;5031922;28;20257;-68
2021/04/07 03:17:11;;;;;;;2.57;1.27;;;2.90;94.00;;;;;;5031900;28;20211;-68
2021/04/07 03:19:37;;;;;;;1.50;1.13;;;2.90;93.50;;;;;;5032036;28;20179;-68
2021/04/07 03:22:03;;;;;;;2.23;1.43;;;3.00;93.20;;;;;;5031874;28;20908;-70
2021/04/07 03:24:29;;;;;;;6.20;1.50;;;2.90;93.90;;;;;;5031747;28;20422;-66
2021/04/07 03:26:55;;;;;;;2.70;1.30;;;2.80;93.10;;;;;;5031854;28;20186;-71
2021/04/07 03:29:20;;;;;;;2.43;1.30;;;2.70;94.10;;;;;;5031995;28;20187;-69
2021/04/07 03:31:46;;;;;;;2.90;1.53;;;2.60;94.30;;;;;;5031800;28;20229;-67
2021/04/07 03:34:11;;;;;;;3.67;1.53;;;2.50;95.20;;;;;;5031662;28;20210;-69
2021/04/07 03:36:37;;;;;;;3.67;1.60;;;2.40;94.50;;;;;;5031363;28;20179;-69
2021/04/07 03:39:03;;;;;;;3.93;1.50;;;2.40;95.40;;;;;;5031590;28;20191;-70
2021/04/07 03:41:29;;;;;;;3.03;1.90;;;2.40;96.10;;;;;;5031378;28;20262;-68
2021/04/07 03:43:55;;;;;;;3.63;1.70;;;2.40;95.70;;;;;;5031413;28;20461;-70
2021/04/07 03:46:28;;;;;;;2.50;1.50;;;2.50;95.70;;;;;;5051539;28;20199;-70
2021/04/07 03:48:53;;;;;;;1.67;1.50;;;2.50;96.30;;;;;;5051418;28;20455;-68
2021/04/07 03:51:19;;;;;;;3.63;1.73;;;2.40;96.30;;;;;;5051700;28;20252;-69
2021/04/07 03:53:58;;;;;;;2.70;1.60;;;2.30;96.90;;;;;;5050253;28;20211;-71
2021/04/07 03:56:23;;;;;;;1.93;1.57;;;2.30;97.50;;;;;;5051198;28;20179;-68
2021/04/07 03:58:49;;;;;;;2.90;1.50;;;2.20;96.80;;;;;;5050686;28;20410;-67
2021/04/07 04:01:14;;;;;;;2.90;2.27;;;2.20;98.20;;;;;;5050930;28;20171;-71
2021/04/07 04:03:40;;;;;;;3.33;2.03;;;2.20;97.00;;;;;;5050392;28;20194;-70
2021/04/07 04:06:06;;;;;;;3.73;1.47;;;2.20;97.20;;;;;;5049649;28;20178;-70
2021/04/07 04:08:31;;;;;;;3.73;1.90;;;2.20;97.40;;;;;;5050785;28;20248;-69
2021/04/07 04:10:57;;;;;;;1.97;1.40;;;2.20;96.80;;;;;;5050714;28;20204;-68
2021/04/07 04:13:23;;;;;;;3.50;1.33;;;2.30;96.80;;;;;;5051082;28;20195;-67
2021/04/07 04:15:48;;;;;;;6.57;1.77;;;2.30;97.40;;;;;;5051146;28;20309;-68
2021/04/07 04:18:14;;;;;;;2.57;1.60;;;2.30;97.80;;;;;;5050615;28;20236;-68
2021/04/07 04:20:40;;;;;;;2.60;1.47;;;2.20;97.40;;;;;;5051003;28;20626;-69
2021/04/07 04:23:06;;;;;;;3.77;1.63;;;2.20;96.80;;;;;;5050581;28;20221;-69
2021/04/07 04:25:32;;;;;;;5.70;1.30;;;2.20;97.20;;;;;;5050704;28;20728;-69
2021/04/07 04:27:58;;;;;;;2.00;1.30;;;2.10;97.40;;;;;;5050591;28;20969;-70
2021/04/07 04:30:26;;;;;;;3.97;1.60;;;2.10;97.40;;;;;;5050900;28;20418;-69
2021/04/07 04:32:52;;;;;;;4.13;1.57;;;2.20;95.80;;;;;;5050610;28;20195;-69
2021/04/07 04:35:18;;;;;;;3.23;1.50;;;2.20;95.70;;;;;;5032664;28;20426;-68
2021/04/07 04:37:45;;;;;;;2.90;1.57;;;2.20;96.50;;;;;;5050645;28;20182;-67
2021/04/07 04:40:12;;;;;;;3.10;1.60;;;2.10;97.00;;;;;;5050548;28;20629;-68
2021/04/07 04:42:37;;;;;;;3.97;1.60;;;2.10;96.10;;;;;;5050498;28;20425;-66
2021/04/07 04:45:05;;;;;;;3.20;1.60;;;2.00;96.60;;;;;;5050800;28;20506;-65
2021/04/07 04:47:30;;;;;;;3.27;1.80;;;2.00;96.70;;;;;;5050511;28;20187;-69
2021/04/07 04:49:56;;;;;;;3.20;1.70;;;2.00;97.30;;;;;;5051041;28;20482;-68
2021/04/07 04:52:22;;;;;;;2.67;1.67;;;1.90;96.20;;;;;;5050531;28;20190;-70
2021/04/07 04:54:49;;;;;;;4.37;1.80;;;1.90;96.10;;;;;;5041584;28;20219;-66
2021/04/07 04:57:15;;;;;;;2.40;1.60;;;1.90;96.50;;;;;;5030735;28;20494;-67
2021/04/07 04:59:41;;;;;;;2.47;1.70;;;1.90;96.80;;;;;;5030295;28;20419;-65
2021/04/07 05:02:07;;;;;;;6.13;1.97;;;2.00;96.30;;;;;;5030451;28;20418;-67
2021/04/07 05:04:33;;;;;;;5.53;1.83;;;2.00;96.30;;;;;;5030621;28;20333;-65
2021/04/07 05:06:58;;;;;;;2.60;1.40;;;2.00;96.10;;;;;;5030382;28;20665;-67
2021/04/07 05:09:30;;;;;;;4.20;1.50;;;2.00;95.60;;;;;;5030535;28;20450;-67
2021/04/07 05:11:56;;;;;;;2.07;1.50;;;1.90;95.80;;;;;;5051803;28;20248;-65
2021/04/07 05:14:22;;;;;;;1.90;1.37;;;1.90;95.90;;;;;;5054078;28;20460;-67
2021/04/07 05:16:47;;;;;;;4.70;1.63;;;1.90;95.70;;;;;;5054069;28;20818;-67
2021/04/07 05:19:13;;;;;;;2.77;1.20;;;1.90;96.20;;;;;;5054025;28;20175;-66
2021/04/07 05:21:39;;;;;;;2.20;1.20;;;1.90;96.30;;;;;;5053997;28;20556;-68
2021/04/07 05:24:06;;;;;;;3.63;1.90;;;1.80;96.40;;;;;;5053883;28;20189;-67
2021/04/07 05:26:32;;;;;;;5.80;1.93;;;1.80;95.90;;;;;;5054225;28;20175;-66
2021/04/07 05:28:58;;;;;;;4.83;1.50;;;1.80;96.60;;;;;;5054238;28;20970;-66
2021/04/07 05:31:23;;;;;;;5.40;1.53;;;1.80;96.50;;;;;;5054116;28;20421;-67
2021/04/07 05:33:49;;;;;;;2.00;1.57;;;1.80;96.60;;;;;;5054102;28;20668;-70
2021/04/07 05:36:15;;;;;;;7.27;1.70;;;1.80;97.00;;;;;;5053748;28;20190;-70
2021/04/07 05:38:41;;;;;;;3.73;1.37;;;1.80;97.20;;;;;;5054036;28;20175;-68
2021/04/07 05:41:08;;;;;;;5.07;2.00;;;1.80;97.50;;;;;;5053665;28;20422;-65
2021/04/07 05:43:36;;;;;;;2.87;1.40;;;1.90;97.60;;;;;;5053671;28;20420;-66
2021/04/07 05:46:02;;;;;;;3.40;1.90;;;2.00;97.30;;;;;;5053584;28;20424;-67
2021/04/07 05:48:28;;;;;;;3.00;1.37;;;2.10;96.90;;;;;;5052789;28;20413;-66
2021/04/07 05:50:54;;;;;;;1.90;1.40;;;2.00;97.30;;;;;;5053609;28;20410;-70
2021/04/07 05:53:23;;;;;;;2.07;1.53;;;2.00;97.30;;;;;;5053464;28;20206;-68
2021/04/07 05:55:53;;;;;;;3.73;1.50;;;1.90;97.60;;;;;;5051711;28;20955;-65
2021/04/07 05:58:19;;;;;;;3.97;1.40;;;1.90;97.70;;;;;;5053152;28;20409;-68
2021/04/07 06:00:46;;;;;;;3.03;1.20;;;1.90;97.70;;;;;;5053533;28;20439;-69
2021/04/07 06:03:12;;;;;;;2.47;0.90;;;2.00;97.90;;;;;;5053300;28;20973;-67
2021/04/07 06:05:40;;;;;;;4.37;2.10;;;2.00;97.80;;;;;;5053258;28;20816;-68
2021/04/07 06:08:07;;;;;;;3.47;1.53;;;2.00;97.30;;;;;;5053269;28;20900;-66
2021/04/07 06:10:35;;;;;;;5.27;1.43;;;2.10;97.40;;;;;;5053156;28;20456;-64
2021/04/07 06:13:01;;;;;;;1.70;1.33;;;2.10;97.20;;;;;;5053147;28;20444;-69
2021/04/07 06:15:27;;;;;;;2.30;1.10;;;2.10;97.20;;;;;;5053227;28;20410;-68
2021/04/07 06:17:56;;;;;;;4.07;1.80;;;2.10;97.30;;;;;;5053160;28;20186;-70
2021/04/07 06:20:26;;;;;;;4.13;1.87;;;2.30;98.40;;;;;;5053243;28;20426;-70
2021/04/07 06:22:55;;;;;;;3.43;1.67;;;2.40;97.00;;;;;;5052357;28;20988;-70
2021/04/07 06:25:22;;;;;;;5.97;1.97;;;2.50;96.50;;;;;;5051603;28;20426;-69
2021/04/07 06:27:49;;;;;;;4.07;1.80;;;2.60;95.80;;;;;;5052713;28;20432;-68
2021/04/07 06:30:15;;;;;;;6.20;2.40;;;2.60;96.10;;;;;;5052926;28;20416;-69
2021/04/07 06:32:41;;;;;;;11.67;2.50;;;2.60;95.50;;;;;;5052457;28;20738;-71
2021/04/07 06:35:07;;;;;;;5.00;2.37;;;2.60;95.80;;;;;;5052401;28;20433;-69
2021/04/07 06:37:33;;;;;;;5.63;2.40;;;2.70;94.60;;;;;;5051635;28;20232;-67
2021/04/07 06:39:58;;;;;;;4.23;1.90;;;2.70;94.10;;;;;;5052709;28;20497;-67
2021/04/07 06:42:24;;;;;;;3.50;2.37;;;2.70;93.10;;;;;;5052885;28;20258;-68
2021/04/07 06:44:50;;;;;;;3.47;2.00;;;2.80;93.60;;;;;;5052417;28;20179;-70
2021/04/07 06:47:17;;;;;;;4.30;2.10;;;2.90;93.70;;;;;;5052500;28;20207;-68
2021/04/07 06:49:43;;;;;;;7.63;2.50;;;2.90;93.10;;;;;;5034692;28;20187;-70
2021/04/07 06:52:22;;;;;;;7.10;3.10;;;3.00;93.10;;;;;;5052025;28;20418;-70
2021/04/07 06:54:51;;;;;;;4.27;2.73;;;3.10;92.70;;;;;;5044637;28;20273;-67
2021/04/07 06:57:17;;;;;;;5.93;2.60;;;3.00;92.90;;;;;;5032144;28;20415;-69
2021/04/07 06:59:43;;;;;;;4.23;2.77;;;3.10;93.00;;;;;;5032185;28;20414;-68
2021/04/07 07:02:11;;;;;;;5.83;3.07;;;3.10;93.80;;;;;;5032184;28;20469;-67
2021/04/07 07:04:36;;;;;;;2.80;2.13;;;3.20;92.80;;;;;;5032214;28;20536;-67
2021/04/07 07:07:02;;;;;;;5.30;2.27;;;3.20;91.70;;;;;;5032282;28;20870;-69
2021/04/07 07:09:28;;;;;;;6.27;2.53;;;3.20;91.90;;;;;;5032087;28;20621;-67
2021/04/07 07:11:54;;;;;;;5.63;2.90;;;3.10;91.10;;;;;;5032075;28;20477;-67
2021/04/07 07:14:20;;;;;;;4.53;2.50;;;3.20;91.00;;;;;;5031845;28;20628;-70
2021/04/07 07:16:48;;;;;;;4.20;1.90;;;3.20;92.10;;;;;;5032085;28;20183;-70
2021/04/07 07:19:24;;;;;;;6.27;3.10;;;3.20;92.10;;;;;;5032152;28;20423;-69
2021/04/07 07:22:02;;;;;;;4.50;2.27;;;3.20;91.90;;;;;;5031882;28;20414;-69
2021/04/07 07:24:39;;;;;;;6.03;2.70;;;3.30;91.10;;;;;;5031654;28;20423;-69
2021/04/07 07:27:07;;;;;;;6.73;2.60;;;3.30;91.10;;;;;;5030721;28;20426;-70
2021/04/07 07:29:35;;;;;;;2.50;1.63;;;3.30;91.30;;;;;;5031702;28;20426;-71
2021/04/07 07:32:06;;;;;;;4.43;3.00;;;3.30;90.70;;;;;;5041846;28;20430;-69
2021/04/07 07:34:32;;;;;;;3.37;2.40;;;3.20;90.90;;;;;;5050902;28;20798;-67
2021/04/07 07:36:59;;;;;;;3.43;2.40;;;3.30;90.50;;;;;;5051379;28;20453;-71
2021/04/07 07:39:26;;;;;;;5.57;2.57;;;3.20;90.70;;;;;;5051395;28;20414;-68
2021/04/07 07:41:57;;;;;;;7.00;2.90;;;3.20;90.90;;;;;;5051164;28;20423;-68
2021/04/07 07:44:23;;;;;;;2.43;1.70;;;3.40;90.70;;;;;;5051263;28;20417;-68
2021/04/07 07:47:08;;;;;;;4.17;2.53;;;3.30;88.50;;;;;;5050876;28;20508;-66
2021/04/07 07:49:34;;;;;;;6.47;2.67;;;3.20;89.50;;;;;;5051287;28;20745;-69
2021/04/07 07:51:59;;;;;;;3.70;2.40;;;3.30;90.80;;;;;;5050740;28;20417;-67
2021/04/07 07:54:26;;;;;;;6.77;2.20;;;3.40;90.30;;;;;;5050668;28;20603;-69
2021/04/07 07:56:53;;;;;;;5.53;2.47;;;3.40;88.20;;;;;;5050854;28;20653;-69
2021/04/07 07:59:29;;;;;;;5.07;2.17;;;3.30;90.50;;;;;;5051226;28;20945;-66
2021/04/07 08:01:55;;;;;;;3.90;1.87;;;3.40;90.30;;;;;;5051115;28;20418;-68
2021/04/07 08:04:21;;;;;;;6.03;2.80;;;3.40;89.90;;;;;;5050818;28;20416;-67
2021/04/07 08:06:47;;;;;;;2.87;1.97;;;3.40;91.20;;;;;;5050810;28;20171;-68
2021/04/07 08:09:13;;;;;;;4.50;2.30;;;3.50;91.00;;;;;;5051085;28;20413;-68
2021/04/07 08:11:45;;;;;;;7.87;2.90;;;3.70;90.70;;;;;;5050957;28;20229;-70
2021/04/07 08:14:17;;;;;;;4.20;2.37;;;3.80;90.10;;;;;;5050872;28;20449;-69
2021/04/07 08:16:43;;;;;;;1.30;1.20;;;4.00;88.40;;;;;;5050642;28;20421;-64
2021/04/07 08:19:11;;;;;;;4.13;2.37;;;4.20;87.20;;;;;;5050666;28;20435;-70
2021/04/07 08:21:40;;;;;;;6.97;2.50;;;4.20;85.50;;;;;;5050857;28;20449;-69
2021/04/07 08:24:15;;;;;;;6.40;2.70;;;4.20;85.90;;;;;;5051030;28;20506;-71
2021/04/07 08:26:48;;;;;;;6.27;2.57;;;4.30;87.30;;;;;;5051230;28;20967;-67
2021/04/07 08:29:14;;;;;;;3.73;2.20;;;4.30;86.20;;;;;;5030668;28;20442;-67
2021/04/07 08:31:43;;;;;;;6.97;2.70;;;4.40;86.30;;;;;;5030621;28;20485;-68
2021/04/07 08:34:10;;;;;;;5.23;2.30;;;4.30;87.30;;;;;;5030743;28;20675;-67
2021/04/07 08:36:40;;;;;;;5.23;2.63;;;4.30;86.50;;;;;;5030907;28;20414;-68
2021/04/07 08:39:12;;;;;;;8.63;3.00;;;4.30;88.00;;;;;;5030920;28;20429;-67
2021/04/07 08:41:39;;;;;;;4.57;1.50;;;4.30;87.40;;;;;;5030645;28;20805;-65
2021/04/07 08:44:06;;;;;;;6.60;2.43;;;4.40;86.50;;;;;;5030739;28;20414;-65
2021/04/07 08:46:57;;;;;;;8.97;2.77;;;4.10;85.40;;;;;;5036083;28;20414;-66
2021/04/07 08:49:41;;;;;;;6.57;2.90;;;4.20;87.30;;;;;;5037442;28;20446;-67
2021/04/07 08:52:23;;;;;;;4.53;2.20;;;4.30;86.80;;;;;;5037287;28;20568;-70
2021/04/07 08:54:51;;;;;;;6.27;2.27;;;4.50;85.20;;;;;;5056790;28;20476;-67
2021/04/07 08:57:30;;;;;;;11.23;2.40;;;4.40;83.60;;;;;;5057141;28;20475;-67
2021/04/07 08:59:57;;;;;;;6.47;2.47;;;4.50;85.00;;;;;;5057158;28;20767;-70
2021/04/07 09:02:23;;;;;;;5.90;2.87;;;4.30;84.50;;;;;;5057057;28;20432;-69
2021/04/07 09:05:04;;;;;;;6.90;2.80;;;4.20;85.80;;;;;;5056991;28;20415;-67
2021/04/07 09:07:43;;;;;;;6.23;2.60;;;4.10;86.60;;;;;;5056970;28;20178;-67
2021/04/07 09:10:14;;;;;;;6.87;2.63;;;4.00;86.70;;;;;;5057013;28;20511;-68
2021/04/07 09:12:42;;;;;;;8.70;3.17;;;4.00;89.20;;;;;;5057175;28;20417;-66
2021/04/07 09:15:25;;;;;;;7.90;3.10;;;3.90;88.40;;;;;;5057133;28;20903;-67
2021/04/07 09:17:56;;;;;;;9.07;3.13;;;4.10;89.20;;;;;;5056952;28;20844;-68
2021/04/07 09:20:43;;;;;;;7.63;2.97;;;4.20;88.60;;;;;;5056990;28;20907;-66
2021/04/07 09:23:31;;;;;;;6.23;2.73;;;4.40;85.10;;;;;;5057084;28;20948;-67
2021/04/07 09:26:16;;;;;;;8.57;2.40;;;4.50;84.90;;;;;;5057181;28;20467;-66
2021/04/07 09:28:44;;;;;;;2.50;1.37;;;4.60;84.00;;;;;;5056983;28;20428;-68
2021/04/07 09:31:11;;;;;;;8.07;2.67;;;4.50;83.40;;;;;;5056913;28;20429;-69
2021/04/07 09:33:39;;;;;;;5.37;3.30;;;4.60;85.80;;;;;;5056957;28;20471;-68
2021/04/07 09:36:06;;;;;;;5.63;2.43;;;4.70;84.40;;;;;;5056673;28;20417;-66
2021/04/07 09:38:34;;;;;;;3.07;1.70;;;4.70;83.50;;;;;;5056769;28;20787;-67
2021/04/07 09:41:05;;;;;;;4.33;2.10;;;4.70;84.50;;;;;;5056818;28;20459;-68
2021/04/07 09:43:31;;;;;;;10.43;2.57;;;4.50;85.30;;;;;;5056545;28;20409;-64
2021/04/07 09:45:58;;;;;;;8.77;2.37;;;4.60;83.90;;;;;;5056870;28;20428;-64
2021/04/07 09:48:43;;;;;;;3.83;1.57;;;4.70;83.10;;;;;;5056372;28;20527;-69
2021/04/07 09:51:32;;;;;;;4.60;2.33;;;4.70;83.00;;;;;;5056466;28;20770;-67
2021/04/07 09:54:14;;;;;;;5.43;2.17;;;4.90;83.00;;;;;;5056188;28;20459;-68
2021/04/07 09:56:54;;;;;;;7.77;2.40;;;4.80;80.70;;;;;;5035263;28;20802;-66
2021/04/07 09:59:55;;;;;;;6.60;2.33;;;5.00;80.50;;;;;;5033330;28;20425;-67
2021/04/07 10:02:23;;;;;;;6.57;2.37;;;4.90;79.50;;;;;;4990151;28;20425;-70
2021/04/07 10:04:50;;;;;;;3.10;2.23;;;5.10;83.40;;;;;;5053215;28;20468;-67
2021/04/07 10:07:17;;;;;;;4.63;2.10;;;5.50;82.30;;;;;;5053116;28;21536;-68
2021/04/07 10:09:56;;;;;;;2.03;1.63;;;5.90;76.70;;;;;;5052906;28;20425;-68
2021/04/07 10:12:24;;;;;;;8.27;2.80;;;6.10;75.00;;;;;;5052756;28;20425;-68
2021/04/07 10:14:55;;;;;;;8.23;2.37;;;6.10;76.10;;;;;;5052824;28;20460;-70
2021/04/07 10:17:28;;;;;;;4.27;1.87;;;6.00;74.60;;;;;;5053076;28;20421;-68
2021/04/07 10:19:55;;;;;;;6.07;2.57;;;5.60;74.80;;;;;;5052528;28;20410;-68
2021/04/07 10:22:26;;;;;;;5.67;1.80;;;5.40;74.10;;;;;;5053037;28;20414;-69
2021/04/07 10:24:57;;;;;;;5.10;2.00;;;5.30;76.00;;;;;;5052608;28;20421;-67
2021/04/07 10:27:25;;;;;;;6.10;2.43;;;5.30;76.40;;;;;;5052811;28;20414;-66
2021/04/07 10:30:03;;;;;;;7.10;2.13;;;5.30;75.90;;;;;;5052530;28;20913;-66
2021/04/07 10:32:29;;;;;;;6.60;1.70;;;5.30;76.20;;;;;;5052779;28;20896;-65
2021/04/07 10:35:03;;;;;;;4.93;2.00;;;5.30;76.30;;;;;;5034453;28;20532;-67
2021/04/07 10:37:29;;;;;;;7.80;2.47;;;5.20;77.60;;;;;;5052623;28;20297;-66
2021/04/07 10:39:54;;;;;;;4.57;1.83;;;5.30;76.50;;;;;;5052279;28;20555;-69
2021/04/07 10:42:20;;;;;;;5.23;2.13;;;5.20;76.20;;;;;;5052540;28;20667;-69
2021/04/07 10:45:04;;;;;;;7.43;2.13;;;5.20;76.80;;;;;;5052497;28;20182;-68
2021/04/07 10:47:37;;;;;;;3.37;1.93;;;5.10;80.40;;;;;;5052715;28;20767;-67
2021/04/07 10:50:04;;;;;;;6.53;1.73;;;5.10;85.10;;;;;;5052363;28;20428;-68
2021/04/07 10:52:37;;;;;;;8.73;2.17;;;5.00;89.50;;;;;;5034262;28;20426;-69
2021/04/07 10:55:25;;;;;;;7.57;2.30;;;4.50;94.60;;;;;;5051556;28;20831;-66
2021/04/07 10:57:56;;;;;;;6.70;2.60;;;4.50;98.70;;;;;;5052322;28;20912;-64
2021/04/07 11:00:28;;;;;;;4.93;2.47;;;4.30;99.90;;;;;;5052111;28;20417;-66
2021/04/07 11:02:55;;;;;;;8.43;3.10;;;4.10;99.70;;;;;;5052134;28;20414;-69
2021/04/07 11:05:26;;;;;;;5.03;2.43;;;4.20;98.10;;;;;;5052046;28;20513;-65
2021/04/07 11:08:05;;;;;;;6.07;2.07;;;4.40;98.30;;;;;;5051912;28;20433;-68
2021/04/07 11:10:47;;;;;;;7.63;1.97;;;4.60;95.20;;;;;;5051080;28;20409;-66
2021/04/07 11:13:14;;;;;;;6.90;2.20;;;4.70;95.30;;;;;;5052033;28;20445;-68
2021/04/07 11:15:40;;;;;;;6.73;2.70;;;4.60;95.30;;;;;;5051599;28;20406;-69
2021/04/07 11:18:06;;;;;;;10.60;2.30;;;4.70;98.00;;;;;;5051658;28;20418;-70
2021/04/07 11:20:33;;;;;;;12.73;2.83;;;4.70;98.50;;;;;;5051535;28;20410;-69
2021/04/07 11:22:59;;;;;;;8.77;1.90;;;4.70;94.90;;;;;;5051738;28;20830;-66
2021/04/07 11:25:25;;;;;;;7.20;1.83;;;4.80;94.30;;;;;;5033777;28;20501;-68
2021/04/07 11:27:52;;;;;;;5.53;2.27;;;4.90;94.90;;;;;;5051510;28;20182;-68
2021/04/07 11:30:18;;;;;;;5.10;2.30;;;5.00;94.10;;;;;;5033958;28;20504;-68
2021/04/07 11:32:48;;;;;;;7.63;3.40;;;5.00;93.00;;;;;;5051182;28;20413;-69
2021/04/07 11:37:52;;;;;;;8.40;4.50;;;5.00;93.30;;;;;;5051106;28;20414;-68
2021/04/07 11:45:27;;;;;;;5.50;1.97;;;5.10;95.50;;;;;;5051759;28;20421;-69
2021/04/07 11:47:52;;;;;;;11.00;2.37;;;5.10;95.80;;;;;;5051088;28;20413;-67
2021/04/07 11:50:19;;;;;;;7.23;2.23;;;5.20;97.00;;;;;;5051439;28;20409;-65
2021/04/07 11:52:45;;;;;;;4.77;1.77;;;5.30;94.90;;;;;;5051290;28;20221;-65
2021/04/07 11:55:11;;;;;;;3.17;1.97;;;5.40;90.50;;;;;;5045415;28;20450;-67
2021/04/07 11:57:37;;;;;;;6.20;1.67;;;5.40;92.40;;;;;;5031196;28;20271;-66
2021/04/07 12:00:06;;;;;;;5.00;2.13;;;5.30;93.00;;;;;;5029728;28;20430;-70
2021/04/07 12:02:33;;;;;;;2.33;1.53;;;5.30;90.20;;;;;;5029842;28;20249;-68
2021/04/07 12:05:00;;;;;;;4.87;1.80;;;5.30;89.50;;;;;;5031077;28;20453;-70
2021/04/07 12:07:26;;;;;;;6.17;2.13;;;5.20;90.00;;;;;;5030953;28;20419;-67
2021/04/07 12:09:51;;;;;;;5.80;2.30;;;5.30;90.70;;;;;;5031052;28;20430;-69
2021/04/07 12:12:17;;;;;;;4.10;1.70;;;5.70;89.40;;;;;;5030896;28;20245;-71
2021/04/07 12:14:42;;;;;;;3.83;1.10;;;6.00;89.80;;;;;;5030879;28;20215;-69
2021/04/07 12:17:08;;;;;;;4.67;2.20;;;6.10;85.20;;;;;;5030834;28;20176;-68
2021/04/07 12:19:34;;;;;;;2.43;1.90;;;6.00;85.30;;;;;;5039078;28;20229;-69
2021/04/07 12:22:00;;;;;;;4.77;2.30;;;5.80;87.30;;;;;;5050782;28;20179;-70
2021/04/07 12:24:26;;;;;;;5.00;1.70;;;5.60;89.10;;;;;;5050655;28;20449;-68
2021/04/07 12:26:51;;;;;;;3.40;1.90;;;5.60;90.10;;;;;;5050783;28;20206;-68
2021/04/07 12:29:17;;;;;;;7.30;4.40;;;5.60;89.50;;;;;;5032777;28;20205;-66
2021/04/07 12:31:42;;;;;;;4.53;2.63;;;5.50;89.50;;;;;;5050615;28;20528;-66
2021/04/07 12:34:08;;;;;;;4.73;2.33;;;5.60;89.10;;;;;;5050817;28;20196;-68
2021/04/07 12:36:35;;;;;;;3.80;1.70;;;5.40;87.90;;;;;;5050641;28;20233;-72
2021/04/07 12:39:02;;;;;;;4.17;1.37;;;5.10;88.60;;;;;;5050521;28;20186;-66
2021/04/07 12:41:32;;;;;;;9.43;2.10;;;5.00;90.50;;;;;;5032355;28;20418;-66
2021/04/07 12:43:58;;;;;;;4.60;1.63;;;4.90;89.60;;;;;;5050594;28;20425;-68
2021/04/07 12:46:24;;;;;;;3.20;1.80;;;5.10;88.60;;;;;;5050367;28;20410;-70
2021/04/07 12:48:51;;;;;;;8.60;2.20;;;5.20;87.00;;;;;;5050641;28;20182;-65
2021/04/07 12:51:18;;;;;;;4.17;1.40;;;5.10;84.80;;;;;;5050732;28;20262;-68
2021/04/07 12:53:44;;;;;;;7.07;1.70;;;5.10;87.10;;;;;;5050188;28;20457;-66
2021/04/07 12:56:19;;;;;;;3.23;1.90;;;5.10;88.10;;;;;;5037128;28;20861;-70
2021/04/07 12:58:47;;;;;;;5.53;1.43;;;5.00;88.10;;;;;;5030357;28;20410;-68
2021/04/07 13:01:13;;;;;;;1.87;1.10;;;4.80;90.50;;;;;;5030375;28;20422;-68
2021/04/07 13:03:39;;;;;;;6.17;2.13;;;4.80;91.70;;;;;;5030555;28;20414;-69
2021/04/07 13:06:05;;;;;;;5.77;2.50;;;4.70;91.90;;;;;;5015736;28;20931;-68
2021/04/07 13:08:31;;;;;;;5.43;1.70;;;4.80;94.40;;;;;;5050358;28;20912;-70
2021/04/07 13:10:57;;;;;;;3.90;2.07;;;4.50;94.50;;;;;;5050138;28;20500;-71